Flight Track Log - Related Links

Times and Time Zones

All times are in EDT time to prevent confusion due to time zone crossing. See the GJS3706 flight status page for this flight to view local times or setup timezone preferences in your user account.

Time Position Orientation Groundspeed Altitude Reporting Facility
EDT Latitude Longitude Course Direction KTS MPH feet Rate Location/Type
Wed 01:09:57 PM 42.7714 -73.8092 276° West 158 182 1,300  Level Boston Center
Wed 01:11:10 PM 42.8294 -73.8442 336° Northwest 204 235 3,900 2,169 Climbing Boston Center
Wed 01:12:00 PM 42.9773 -73.9773 324° Northwest  Level FlightAware Approximate
Wed 01:12:07 PM 42.8725 -73.8992 317° Northwest 234 269 6,000  Level Boston Center
Wed 01:13:00 PM 43.0099 -74.0886 279° West  Level FlightAware Approximate
Wed 01:13:07 PM 42.9217 -73.9683 314° West 244 281 8,600  Level Boston Center
Wed 01:14:00 PM 43.0214 -74.2157 276° West  Level FlightAware Approximate
Wed 01:14:07 PM 42.9750 -74.0350 318° Northwest 251 289 11,300  Level Boston Center
Wed 01:15:00 PM 43.0305 -74.3432 276° West  Level FlightAware Approximate
Wed 01:15:07 PM 42.9983 -74.1350 288° West 258 297 13,000  Level Boston Center
Wed 01:16:07 PM 43.0069 -74.2600 275° West 313 360 14,700 1,700 Climbing Boston Center
Wed 01:17:07 PM 43.0175 -74.3825 277° West 338 389 16,400 1,682 Climbing Boston Center
Wed 01:18:19 PM 43.0317 -74.5164 278° West 355 409 18,400 1,818 Climbing Boston Center
Wed 01:19:19 PM 43.0436 -74.6644 276° West 355 409 20,400 1,900 Climbing Boston Center
Wed 01:20:19 PM 43.0533 -74.7956 276° West 355 409 22,200 1,650 Climbing Boston Center
Wed 01:21:19 PM 43.0653 -74.9297 277° West 355 409 23,700 1,350 Climbing Boston Center
Wed 01:22:19 PM 43.0744 -75.0667 275° West 355 409 24,900 1,200 Climbing Boston Center
Wed 01:23:19 PM 43.0878 -75.2178 277° West 360 414 26,100 1,200 Climbing Boston Center
Wed 01:24:19 PM 43.0986 -75.3633 276° West 371 427 27,300 1,100 Climbing Boston Center
Wed 01:25:19 PM 43.1081 -75.4806 276° West 381 438 28,300 1,250 Climbing Boston Center
Wed 01:26:19 PM 43.1200 -75.6517 276° West 387 445 29,800 1,350 Climbing Boston Center
Wed 01:27:19 PM 43.1325 -75.7975 277° West 387 445 31,000 1,200 Climbing Boston Center
Wed 01:28:19 PM 43.1344 -75.9372 271° West 387 445 32,200 1,100 Climbing Boston Center
Wed 01:29:19 PM 43.1342 -76.0794 270° West 387 445 33,200 1,013 Climbing Boston Center
Wed 01:30:59 PM 43.1167 -76.2833 263° West 370 426 34,900 892 Climbing Toronto Center
Wed 01:31:47 PM 43.1333 -76.4122 280° West 366 421 35,400 556 Climbing Cleveland Center
Wed 01:32:47 PM 43.1361 -76.5542 272° West 366 421 35,900 600 Climbing Cleveland Center
Wed 01:33:47 PM 43.1353 -76.7108 270° West 371 427 36,600 650 Climbing Cleveland Center
Wed 01:34:47 PM 43.1339 -76.8589 269° West 376 433 37,200 650 Climbing Cleveland Center
Wed 01:35:47 PM 43.1342 -77.0011 270° West 381 438 37,900 400 Climbing Cleveland Center
Wed 01:36:47 PM 43.1325 -77.1464 269° West 381 438 38,000 50 Climbing Cleveland Center
Wed 01:37:47 PM 43.1325 -77.2917 270° West 387 445 38,000  Level Cleveland Center
Wed 01:38:47 PM 43.1303 -77.4397 269° West 387 445 38,000  Level Cleveland Center
Wed 01:39:47 PM 43.1300 -77.5875 270° West 387 445 38,000  Level Cleveland Center
Wed 01:40:47 PM 43.1297 -77.7356 270° West 387 445 38,000  Level Cleveland Center
Wed 01:41:47 PM 43.1269 -77.8836 269° West 387 445 38,000  Level Cleveland Center
Wed 01:42:47 PM 43.1239 -78.0317 268° West 392 451 38,000  Level Cleveland Center
Wed 01:43:47 PM 43.1211 -78.1856 269° West 398 458 38,000  Level Cleveland Center
Wed 01:44:47 PM 43.1200 -78.3392 269° West 403 464 38,000  Level Cleveland Center
Wed 01:45:47 PM 43.1167 -78.4928 268° West 403 464 38,000 -250 Level Cleveland Center
Wed 01:46:47 PM 43.1131 -78.6464 268° West 403 464 37,500 -750 Descending Cleveland Center
Wed 01:47:47 PM 43.1094 -78.8058 268° West 408 470 36,500 -750 Descending Cleveland Center
Wed 01:48:47 PM 43.1075 -78.9653 269° West 414 476 36,000 -250 Descending Cleveland Center
Wed 01:49:47 PM 43.1033 -79.1244 268° West 424 488 36,000  Level Cleveland Center
Wed 01:50:47 PM 43.1031 -79.2808 270° West 424 488 36,000  Level Cleveland Center
Wed 01:51:47 PM 43.0986 -79.4375 268° West 424 488 36,000  Level Cleveland Center
Wed 01:52:47 PM 43.0936 -79.5967 268° West 424 488 36,000  Level Cleveland Center
Wed 01:53:59 PM 43.0833 -79.7667 265° West 420 483 36,000  Level Toronto Center
Wed 01:54:59 PM 43.0667 -79.9333 262° West 430 495 36,000  Level Toronto Center
Wed 01:55:59 PM 43.0667 -80.0833 270° West 440 506 36,000  Level Toronto Center
Wed 01:56:59 PM 43.0667 -80.2500 270° West 440 506 36,000  Level Toronto Center
Wed 01:57:59 PM 43.0500 -80.4333 263° West 440 506 36,000  Level Toronto Center
Wed 01:58:59 PM 43.0500 -80.6167 270° West 450 518 36,000  Level Toronto Center
Wed 01:59:59 PM 43.0500 -80.7667 270° West 440 506 36,000  Level Toronto Center
Wed 02:00:59 PM 43.0333 -80.9333 262° West 440 506 36,000  Level Toronto Center
Wed 02:01:59 PM 43.0167 -81.1000 262° West 440 506 36,000  Level Toronto Center
Wed 02:02:59 PM 43.0167 -81.2667 270° West 440 506 36,000  Level Toronto Center
Wed 02:03:59 PM 43.0167 -81.4333 270° West 440 506 36,000  Level Toronto Center
Wed 02:04:59 PM 43.0167 -81.6000 270° West 440 506 36,000  Level Toronto Center
Wed 02:05:59 PM 43.0167 -81.7833 270° West 440 506 36,000  Level Toronto Center
Wed 02:06:59 PM 43.0000 -81.9333 261° West 440 506 36,000  Level Toronto Center
Wed 02:07:59 PM 43.0000 -82.1000 270° West 440 506 36,000  Level Toronto Center
Wed 02:08:59 PM 43.0000 -82.2833 270° West 440 506 36,000  Level Toronto Center
Wed 02:09:59 PM 43.0000 -82.4333 270° West 440 506 36,000 -100 Level Toronto Center
Wed 02:10:59 PM 43.0000 -82.6167 270° West 440 506 35,800 -438 Descending Toronto Center
Wed 02:11:35 PM 43.0031 -82.7208 272° West 444 511 35,300 -1,011 Descending Cleveland Center
Wed 02:12:34 PM 42.9978 -82.8911 268° West 444 511 34,200 -908 Descending Cleveland Center
Wed 02:13:34 PM 42.9919 -83.0639 267° West 449 517 33,500 -850 Descending Cleveland Center
Wed 02:14:34 PM 42.9839 -83.2425 267° West 461 531 32,500 -750 Descending Cleveland Center
Wed 02:15:34 PM 42.9797 -83.4183 268° West 461 531 32,000 -250 Descending Cleveland Center
Wed 02:16:34 PM 42.9733 -83.5939 267° West 466 536 32,000  Level Cleveland Center
Wed 02:17:34 PM 42.9642 -83.7750 266° West 471 542 32,000  Level Cleveland Center
Wed 02:18:35 PM 42.9467 -83.9500 262° West 477 549 32,000  Level Cleveland Center
Wed 02:19:51 PM 42.9244 -84.1678 262° West 476 548 32,000  Level Chicago Center
Wed 02:20:53 PM 42.9083 -84.3378 263° West 460 529 32,000  Level Chicago Center
Wed 02:21:55 PM 42.8917 -84.5083 262° West 457 526 32,000  Level Chicago Center
Wed 02:22:57 PM 42.8739 -84.6811 262° West 459 528 32,000  Level Chicago Center
Wed 02:23:59 PM 42.8556 -84.8547 262° West 461 531 32,000  Level Chicago Center
Wed 02:25:01 PM 42.8353 -85.0575 262° West 454 522 32,000 -581 Level Chicago Center
Wed 02:26:03 PM 42.8164 -85.2286 261° West 455 524 30,800 -1,258 Descending Chicago Center
Wed 02:27:05 PM 42.8008 -85.3686 261° West 465 535 29,400 -1,645 Descending Chicago Center
Wed 02:28:07 PM 42.7750 -85.5703 260° West 452 520 27,400 -1,839 Descending Chicago Center
Wed 02:29:09 PM 42.7433 -85.7375 256° West 453 521 25,600 -1,694 Descending Chicago Center
Wed 02:30:11 PM 42.7131 -85.9031 256° West 449 517 23,900 -1,645 Descending Chicago Center
Wed 02:31:13 PM 42.6842 -86.0647 256° West 440 506 22,200 -1,645 Descending Chicago Center
Wed 02:32:15 PM 42.6567 -86.2197 256° West 424 488 20,500 -1,694 Descending Chicago Center
Wed 02:33:17 PM 42.6219 -86.3939 255° West 401 461 18,700 -1,645 Descending Chicago Center
Wed 02:34:19 PM 42.5950 -86.5375 256° West 393 452 17,100 -1,452 Descending Chicago Center
Wed 02:35:21 PM 42.5697 -86.6753 256° West 380 437 15,700 -1,344 Descending Chicago Center
Wed 02:36:24 PM 42.5397 -86.8100 253° West 377 434 14,300 -1,296 Descending Chicago Center
Wed 02:37:26 PM 42.5039 -86.9406 250° West 373 429 13,000 -1,258 Descending Chicago Center
Wed 02:38:28 PM 42.4700 -87.0581 249° West 342 394 11,700 -1,210 Descending Chicago Center
Wed 02:39:30 PM 42.4344 -87.1869 250° West 310 357 10,500 -1,113 Descending Chicago Center
Wed 02:40:32 PM 42.4056 -87.2878 249° West 296 341 9,400 -919 Descending Chicago Center
Wed 02:41:34 PM 42.3758 -87.3822 247° West 276 318 8,600 -919 Descending Chicago Center
Wed 02:42:36 PM 42.3314 -87.4722 236° Southwest 265 305 7,500 -774 Descending Chicago Center
Wed 02:43:38 PM 42.2939 -87.5517 237° Southwest 274 315 7,000 -677 Descending Chicago Center
Wed 02:44:40 PM 42.2278 -87.6397 225° Southwest 285 328 6,100 -912 Descending Chicago Center
Wed 02:45:43 PM 42.1719 -87.7061 221° Southwest 270 311 5,100 -1,056 Descending Chicago Center
Wed 02:46:45 PM 42.1183 -87.7622 218° Southwest 249 287 3,900 -1,161 Descending Chicago Center

Login

Don't have an account? Register now (free) for customized features, flight alerts, and more!